Time;durP1;ratioP1;P1;durP2;ratioP2;P2;SDS_P1;SDS_P2;PMS_P1;PMS_P2;Temp;Humidity;BMP_temperature;BMP_pressure;BME280_temperature;BME280_humidity;BME280_pressure;Samples;Min_cycle;Max_cycle;Signal;HPM_P1;HPM_P2
2022/02/03 00:02:52;;;;;;;;;;;8.80;99.90;;;;;;8379046;28;19927;-73
2022/02/03 00:06:59;;;;;;;;;;;8.80;99.90;;;;;;8384260;28;20006;-73
2022/02/03 00:24:11;;;;;;;;;;;8.80;99.90;;;;;;8387219;28;20455;-73
2022/02/03 00:28:25;;;;;;;;;;;8.80;99.90;;;;;;8392851;28;20376;-73
2022/02/03 00:37:08;;;;;;;;;;;8.80;99.90;;;;;;8383738;28;19928;-73
2022/02/03 00:53:58;;;;;;;;;;;8.80;99.90;;;;;;8388542;28;19973;-73
2022/02/03 00:58:00;;;;;;;;;;;8.80;99.90;;;;;;8381491;28;19963;-73
2022/02/03 01:02:07;;;;;;;;;;;8.70;99.90;;;;;;8381194;28;20332;-73
2022/02/03 01:06:12;;;;;;;;;;;8.80;99.90;;;;;;8384865;28;19975;-73
2022/02/03 01:10:29;;;;;;;;;;;8.70;99.90;;;;;;8385566;28;20287;-73
2022/02/03 01:14:44;;;;;;;;;;;8.70;99.90;;;;;;8380861;28;19971;-73
2022/02/03 01:53:55;;;;;;;;;;;8.80;99.90;;;;;;8384852;28;19959;-73
2022/02/03 01:58:02;;;;;;;;;;;8.80;99.90;;;;;;8380910;28;20566;-73
2022/02/03 02:02:05;;;;;;;;;;;8.80;99.90;;;;;;8361978;28;19931;-73
2022/02/03 02:06:18;;;;;;;;;;;8.80;99.90;;;;;;8385903;28;20059;-73
2022/02/03 02:19:18;;;;;;;;;;;8.80;99.90;;;;;;8382588;28;19959;-73
2022/02/03 02:45:28;;;;;;;;;;;8.70;99.90;;;;;;8387700;28;22349;-73
2022/02/03 02:49:43;;;;;;;;;;;8.70;99.90;;;;;;8385927;28;20023;-73
2022/02/03 02:58:31;;;;;;;;;;;8.70;99.90;;;;;;8351047;28;20015;-73
2022/02/03 03:37:13;;;;;;;;;;;8.60;99.90;;;;;;8381103;28;20365;-73
2022/02/03 03:41:20;;;;;;;;;;;8.60;99.90;;;;;;8386152;28;19925;-72
2022/02/03 03:45:22;;;;;;;;;;;8.60;99.90;;;;;;8371428;28;19931;-73
2022/02/03 03:49:43;;;;;;;;;;;8.60;99.90;;;;;;8390532;28;19967;-73
2022/02/03 03:54:01;;;;;;;;;;;8.60;99.90;;;;;;8384161;28;19943;-73
2022/02/03 04:29:21;;;;;;;;;;;8.50;99.90;;;;;;8375141;28;20078;-73
2022/02/03 04:55:19;;;;;;;;;;;8.50;99.90;;;;;;8385384;28;20527;-73
2022/02/03 05:04:16;;;;;;;;;;;8.50;99.90;;;;;;8374148;28;19925;-73
2022/02/03 05:12:56;;;;;;;;;;;8.50;99.90;;;;;;8383644;28;19948;-73
2022/02/03 05:25:52;;;;;;;;;;;8.50;99.90;;;;;;8387807;28;19931;-73
2022/02/03 05:52:08;;;;;;;;;;;8.40;99.90;;;;;;8385978;28;19991;-73
2022/02/03 06:04:48;;;;;;;;;;;8.40;99.90;;;;;;8386231;28;20424;-72
2022/02/03 06:08:59;;;;;;;;;;;8.40;99.90;;;;;;8388704;28;20020;-73
2022/02/03 06:13:11;;;;;;;;;;;8.40;99.90;;;;;;8381485;28;20019;-73
2022/02/03 06:17:34;;;;;;;;;;;8.40;99.90;;;;;;8387994;28;19936;-73
2022/02/03 06:21:49;;;;;;;;;;;8.40;99.90;;;;;;8391509;28;19924;-73
2022/02/03 06:30:13;;;;;;;;;;;8.40;99.90;;;;;;8388692;28;20283;-73
2022/02/03 06:34:15;;;;;;;;;;;8.30;99.90;;;;;;8390136;28;19932;-73
2022/02/03 06:38:17;;;;;;;;;;;8.30;99.90;;;;;;8373180;28;19970;-73
2022/02/03 06:42:18;;;;;;;;;;;8.30;99.90;;;;;;8367116;28;20012;-73
2022/02/03 06:46:21;;;;;;;;;;;8.30;99.90;;;;;;8399429;28;20003;-73
2022/02/03 06:50:29;;;;;;;;;;;8.30;99.90;;;;;;8372517;28;20079;-72
2022/02/03 06:55:03;;;;;;;;;;;8.20;99.90;;;;;;8395113;28;20366;-72
2022/02/03 06:58:57;;;;;;;;;;;8.20;99.90;;;;;;8392484;28;19924;-73
2022/02/03 07:03:01;;;;;;;;;;;8.20;99.90;;;;;;8372149;28;20007;-73
2022/02/03 07:07:02;;;;;;;;;;;8.20;99.90;;;;;;8373613;28;19968;-73
2022/02/03 07:11:04;;;;;;;;;;;8.10;99.90;;;;;;8394870;28;20459;-73
2022/02/03 07:15:07;;;;;;;;;;;8.10;99.90;;;;;;8380556;28;20019;-73
2022/02/03 07:19:09;;;;;;;;;;;8.10;99.90;;;;;;8370531;28;19971;-73
2022/02/03 07:23:10;;;;;;;;;;;8.10;99.90;;;;;;8374196;28;19928;-73
2022/02/03 07:27:12;;;;;;;;;;;8.10;99.90;;;;;;8390452;28;19924;-73
2022/02/03 07:31:13;;;;;;;;;;;8.10;99.90;;;;;;8390350;28;19943;-73
2022/02/03 07:35:15;;;;;;;;;;;8.10;99.90;;;;;;8384214;28;19932;-73
2022/02/03 07:39:17;;;;;;;;;;;8.00;99.90;;;;;;8380835;28;20020;-73
2022/02/03 07:43:20;;;;;;;;;;;8.00;99.90;;;;;;8363142;28;19968;-73
2022/02/03 07:47:22;;;;;;;;;;;8.00;99.90;;;;;;8386147;28;19928;-73
2022/02/03 07:51:24;;;;;;;;;;;8.00;99.90;;;;;;8384649;28;20082;-73
2022/02/03 07:55:26;;;;;;;;;;;8.00;99.90;;;;;;8385244;28;19994;-73
2022/02/03 07:59:28;;;;;;;;;;;8.00;99.90;;;;;;8388350;28;19925;-72
2022/02/03 08:03:29;;;;;;;;;;;8.00;99.90;;;;;;8368070;28;19974;-73
2022/02/03 08:07:33;;;;;;;;;;;8.00;99.90;;;;;;8381636;28;20013;-73
2022/02/03 08:11:43;;;;;;;;;;;8.00;99.90;;;;;;8386406;28;20020;-73
2022/02/03 08:15:45;;;;;;;;;;;8.00;99.90;;;;;;8383054;28;20332;-73
2022/02/03 08:19:57;;;;;;;;;;;8.00;99.90;;;;;;8363809;28;19963;-73
2022/02/03 08:24:10;;;;;;;;;;;7.90;99.90;;;;;;8370731;28;19924;-73
2022/02/03 08:32:19;;;;;;;;;;;7.90;99.90;;;;;;8386663;28;19928;-73
2022/02/03 08:36:21;;;;;;;;;;;7.80;99.90;;;;;;8385797;28;19928;-72
2022/02/03 08:40:31;;;;;;;;;;;7.80;99.90;;;;;;8388415;28;19996;-73
2022/02/03 08:44:33;;;;;;;;;;;7.80;99.90;;;;;;8367691;28;19925;-73
2022/02/03 08:48:34;;;;;;;;;;;7.80;99.90;;;;;;8378862;28;20015;-73
2022/02/03 08:52:50;;;;;;;;;;;7.70;99.90;;;;;;8382087;28;19983;-72
2022/02/03 08:57:04;;;;;;;;;;;7.60;99.90;;;;;;8360902;28;19960;-73
2022/02/03 10:01:13;;;;;;;;;;;7.40;99.90;;;;;;8389182;28;19921;-73
2022/02/03 10:05:34;;;;;;;;;;;7.40;99.90;;;;;;8371855;28;19925;-74
2022/02/03 10:09:37;;;;;;;;;;;7.40;99.90;;;;;;8385403;28;19928;-73
2022/02/03 10:13:43;;;;;;;;;;;7.40;99.90;;;;;;8392559;28;19959;-72
2022/02/03 10:17:46;;;;;;;;;;;7.40;99.90;;;;;;8390151;28;19999;-73
2022/02/03 10:21:48;;;;;;;;;;;7.50;99.90;;;;;;8392297;28;19963;-73
2022/02/03 10:25:55;;;;;;;;;;;7.50;99.90;;;;;;8387833;28;19928;-73
2022/02/03 10:30:23;;;;;;;;;;;7.50;99.90;;;;;;8392479;28;19963;-73
2022/02/03 10:34:29;;;;;;;;;;;7.50;99.90;;;;;;8391195;28;19924;-73
2022/02/03 10:38:46;;;;;;;;;;;7.50;99.90;;;;;;8377076;28;19920;-72
2022/02/03 10:43:15;;;;;;;;;;;7.60;99.90;;;;;;8389781;28;21002;-73
2022/02/03 10:47:50;;;;;;;;;;;7.50;99.90;;;;;;8386881;28;19921;-72
2022/02/03 10:52:18;;;;;;;;;;;7.50;99.90;;;;;;8393648;28;20022;-72
2022/02/03 10:56:22;;;;;;;;;;;7.50;99.90;;;;;;8392345;28;19974;-73
2022/02/03 11:12:53;;;;;;;;;;;7.40;99.90;;;;;;8386379;28;20391;-73
2022/02/03 11:16:55;;;;;;;;;;;7.40;99.90;;;;;;8392792;28;19968;-73
2022/02/03 11:20:58;;;;;;;;;;;7.40;99.90;;;;;;8395072;28;19976;-72
2022/02/03 11:30:28;;;;;;;;;;;7.50;99.90;;;;;;8291425;28;19921;-73
2022/02/03 11:57:24;;;;;;;;;;;7.80;99.90;;;;;;8380961;28;19964;-72
2022/02/03 12:01:48;;;;;;;;;;;7.80;99.90;;;;;;8380080;28;19935;-73
2022/02/03 12:10:43;;;;;;;;;;;7.90;99.90;;;;;;8382337;28;19921;-73
2022/02/03 12:23:48;;;;;;;;;;;8.00;99.90;;;;;;8384338;28;19920;-73
2022/02/03 12:28:07;;;;;;;;;;;8.00;99.90;;;;;;8385069;28;19920;-73
2022/02/03 12:40:53;;;;;;;;;;;8.00;99.90;;;;;;8388875;28;19928;-73
2022/02/03 12:45:03;;;;;;;;;;;8.00;99.90;;;;;;8388056;28;19971;-72
2022/02/03 12:49:04;;;;;;;;;;;7.90;99.90;;;;;;8388370;28;19920;-72
2022/02/03 12:53:06;;;;;;;;;;;7.80;99.90;;;;;;8389954;28;19955;-72
2022/02/03 12:57:08;;;;;;;;;;;7.70;99.90;;;;;;8369655;28;20384;-73
2022/02/03 13:01:16;;;;;;;;;;;7.70;99.90;;;;;;8371635;28;19920;-73
2022/02/03 13:05:19;;;;;;;;;;;7.60;99.90;;;;;;8388225;28;19924;-73
2022/02/03 13:09:27;;;;;;;;;;;7.60;99.90;;;;;;8373181;28;19951;-73
2022/02/03 13:17:57;;;;;;;;;;;7.50;99.90;;;;;;8350488;28;19951;-73
2022/02/03 13:22:29;;;;;;;;;;;7.50;99.90;;;;;;8389536;28;20007;-73
2022/02/03 13:26:34;;;;;;;;;;;7.40;99.90;;;;;;8384381;28;19971;-73
2022/02/03 13:30:46;;;;;;;;;;;7.40;99.90;;;;;;8368381;28;19993;-73
2022/02/03 13:35:21;;;;;;;;;;;7.40;99.90;;;;;;8388964;28;19986;-73
2022/02/03 13:39:22;;;;;;;;;;;7.40;99.90;;;;;;8381812;28;20384;-72
2022/02/03 13:43:24;;;;;;;;;;;7.30;99.90;;;;;;8381789;28;19968;-73
2022/02/03 13:47:34;;;;;;;;;;;7.30;99.90;;;;;;8377110;28;19990;-73
2022/02/03 13:51:39;;;;;;;;;;;7.40;99.90;;;;;;8385117;28;19972;-73
2022/02/03 14:17:40;;;;;;;;;;;7.40;99.90;;;;;;8384183;28;20011;-73
2022/02/03 14:21:45;;;;;;;;;;;7.30;99.90;;;;;;8388457;28;20408;-73
2022/02/03 14:30:15;;;;;;;;;;;7.30;99.90;;;;;;8390191;28;19971;-73
2022/02/03 14:34:24;;;;;;;;;;;7.30;99.90;;;;;;8389698;28;19931;-73
2022/02/03 14:38:31;;;;;;;;;;;7.30;99.90;;;;;;8389476;28;20011;-73
2022/02/03 14:42:37;;;;;;;;;;;7.30;99.90;;;;;;8393287;28;20334;-72
2022/02/03 14:46:38;;;;;;;;;;;7.30;99.90;;;;;;8389419;28;20051;-73
2022/02/03 14:50:40;;;;;;;;;;;7.30;99.90;;;;;;8397313;28;19955;-73
2022/02/03 14:59:03;;;;;;;;;;;7.40;99.90;;;;;;8387177;28;19927;-73
2022/02/03 15:03:04;;;;;;;;;;;7.40;99.90;;;;;;8387280;28;20013;-72
2022/02/03 15:07:09;;;;;;;;;;;7.40;99.90;;;;;;8389706;28;20395;-73
2022/02/03 15:11:16;;;;;;;;;;;7.30;99.90;;;;;;8393236;28;19964;-73
2022/02/03 15:15:17;;;;;;;;;;;7.30;99.90;;;;;;8392521;28;20015;-72
2022/02/03 15:19:19;;;;;;;;;;;7.40;99.90;;;;;;8375832;28;19928;-73
2022/02/03 15:23:21;;;;;;;;;;;7.40;99.90;;;;;;8393218;28;19979;-73
2022/02/03 15:27:22;;;;;;;;;;;7.40;99.90;;;;;;8376029;28;19986;-73
2022/02/03 15:31:30;;;;;;;;;;;7.40;99.90;;;;;;8387681;28;19928;-73
2022/02/03 15:39:40;;;;;;;;;;;7.40;99.90;;;;;;8386731;28;19994;-73
2022/02/03 15:43:43;;;;;;;;;;;7.50;99.90;;;;;;8389261;28;20019;-73
2022/02/03 15:47:50;;;;;;;;;;;7.50;99.90;;;;;;8368915;28;19924;-73
2022/02/03 16:17:28;;;;;;;;;;;7.60;99.90;;;;;;8362151;28;20028;-72
2022/02/03 16:26:31;;;;;;;;;;;7.60;99.90;;;;;;8362369;28;20356;-73
2022/02/03 16:56:07;;;;;;;;;;;7.50;99.90;;;;;;8360239;28;20375;-72
2022/02/03 17:00:14;;;;;;;;;;;7.50;99.90;;;;;;8357820;28;20407;-73
2022/02/03 17:04:32;;;;;;;;;;;7.50;99.90;;;;;;8346531;28;20003;-73
2022/02/03 17:08:34;;;;;;;;;;;7.50;99.90;;;;;;8358885;28;20011;-73
2022/02/03 17:12:39;;;;;;;;;;;7.40;99.90;;;;;;8343251;28;19925;-73
2022/02/03 17:16:41;;;;;;;;;;;7.40;99.90;;;;;;8356986;28;20352;-73
2022/02/03 17:20:43;;;;;;;;;;;7.40;99.90;;;;;;8358018;28;19920;-73
2022/02/03 17:25:02;;;;;;;;;;;7.50;99.90;;;;;;8343096;28;20010;-73
2022/02/03 17:29:17;;;;;;;;;;;7.40;99.90;;;;;;8359846;28;19975;-73
2022/02/03 18:08:19;;;;;;;;;;;7.50;99.90;;;;;;8366840;28;19983;-73
2022/02/03 18:29:51;;;;;;;;;;;7.50;99.90;;;;;;8364336;28;19971;-73
2022/02/03 18:34:13;;;;;;;;;;;7.50;99.90;;;;;;8367938;28;19964;-73
2022/02/03 18:51:32;;;;;;;;;;;7.50;99.90;;;;;;8346901;28;19924;-73
2022/02/03 19:00:38;;;;;;;;;;;7.50;99.90;;;;;;8368644;28;20027;-73
2022/02/03 20:01:06;;;;;;;;;;;7.50;99.90;;;;;;8367399;28;19968;-73
2022/02/03 20:04:49;;;;;;;;;;;7.50;99.90;;;;;;8368506;28;19924;-72
2022/02/03 20:08:57;;;;;;;;;;;7.50;99.90;;;;;;8372120;28;19971;-73
2022/02/03 20:12:59;;;;;;;;;;;7.60;99.90;;;;;;8362717;28;20015;-73
2022/02/03 20:17:01;;;;;;;;;;;7.60;99.90;;;;;;8347344;28;19929;-73
2022/02/03 20:21:02;;;;;;;;;;;7.60;99.90;;;;;;8365167;28;20028;-73
2022/02/03 20:25:04;;;;;;;;;;;7.60;99.90;;;;;;8362042;28;19923;-73
2022/02/03 20:29:06;;;;;;;;;;;7.60;99.90;;;;;;8364404;28;19971;-73
2022/02/03 20:33:07;;;;;;;;;;;7.60;99.90;;;;;;8364168;28;19961;-73
2022/02/03 20:37:09;;;;;;;;;;;7.60;99.90;;;;;;8362223;28;19924;-73
2022/02/03 20:41:10;;;;;;;;;;;7.60;99.90;;;;;;8361142;28;19932;-73
2022/02/03 20:45:14;;;;;;;;;;;7.60;99.90;;;;;;8363095;28;19986;-73
2022/02/03 20:49:15;;;;;;;;;;;7.60;99.90;;;;;;8363490;28;20367;-73
2022/02/03 20:53:17;;;;;;;;;;;7.60;99.90;;;;;;8362100;28;19928;-73
2022/02/03 20:57:18;;;;;;;;;;;7.60;99.90;;;;;;8358815;28;19974;-73
2022/02/03 21:01:25;;;;;;;;;;;7.60;99.90;;;;;;8362658;28;20044;-73
2022/02/03 21:05:27;;;;;;;;;;;7.60;99.90;;;;;;8358383;28;19924;-73
2022/02/03 21:09:28;;;;;;;;;;;7.60;99.90;;;;;;8370094;28;20034;-73
2022/02/03 21:13:30;;;;;;;;;;;7.60;99.90;;;;;;8365454;28;19972;-73
2022/02/03 21:17:32;;;;;;;;;;;7.60;99.90;;;;;;8370666;28;19967;-73
2022/02/03 21:21:34;;;;;;;;;;;7.60;99.90;;;;;;8366298;28;20431;-73
2022/02/03 21:25:41;;;;;;;;;;;7.60;99.90;;;;;;8346329;28;19972;-73
2022/02/03 21:29:43;;;;;;;;;;;7.60;99.90;;;;;;8348221;28;19924;-73
2022/02/03 21:33:52;;;;;;;;;;;7.60;99.90;;;;;;8368004;28;19967;-73
2022/02/03 21:37:54;;;;;;;;;;;7.70;99.90;;;;;;8359681;28;20015;-73
2022/02/03 21:41:55;;;;;;;;;;;7.70;99.90;;;;;;8357559;28;20441;-73
2022/02/03 21:45:57;;;;;;;;;;;7.70;99.90;;;;;;8342617;28;20155;-73
2022/02/03 21:49:59;;;;;;;;;;;7.70;99.90;;;;;;8361634;28;19968;-73
2022/02/03 21:54:03;;;;;;;;;;;7.70;99.90;;;;;;8356245;28;19993;-73
2022/02/03 21:58:04;;;;;;;;;;;7.70;99.90;;;;;;8361845;28;20268;-73
2022/02/03 22:02:07;;;;;;;;;;;7.70;99.90;;;;;;8358643;28;20014;-73
2022/02/03 22:06:09;;;;;;;;;;;7.70;99.90;;;;;;8369850;28;20009;-73
2022/02/03 22:10:11;;;;;;;;;;;7.70;99.90;;;;;;8388279;28;19921;-73
2022/02/03 22:14:13;;;;;;;;;;;7.70;99.90;;;;;;8379484;28;20384;-73
2022/02/03 22:18:17;;;;;;;;;;;7.70;99.90;;;;;;8394439;28;20003;-73
2022/02/03 22:27:10;;;;;;;;;;;7.70;99.90;;;;;;8384629;28;19967;-73
2022/02/03 22:44:41;;;;;;;;;;;7.70;99.90;;;;;;8390274;28;19962;-73
2022/02/03 22:48:43;;;;;;;;;;;7.70;99.90;;;;;;8370732;28;19921;-73
2022/02/03 22:52:45;;;;;;;;;;;7.70;99.90;;;;;;8394845;28;20336;-73
2022/02/03 22:56:46;;;;;;;;;;;7.70;99.90;;;;;;8384508;28;20000;-73
2022/02/03 23:00:59;;;;;;;;;;;7.70;99.90;;;;;;8380490;28;19925;-73
2022/02/03 23:05:01;;;;;;;;;;;7.70;99.90;;;;;;8373241;28;20260;-73
2022/02/03 23:09:56;;;;;;;;;;;7.80;99.90;;;;;;8370588;28;19964;-73
2022/02/03 23:13:57;;;;;;;;;;;7.70;99.90;;;;;;8375130;28;20015;-73
2022/02/03 23:17:56;;;;;;;;;;;7.80;99.90;;;;;;8389642;28;19965;-73
2022/02/03 23:26:10;;;;;;;;;;;7.80;99.90;;;;;;8385422;28;20376;-73
2022/02/03 23:30:12;;;;;;;;;;;7.80;99.90;;;;;;8388573;28;19920;-73
2022/02/03 23:34:14;;;;;;;;;;;7.80;99.90;;;;;;8386668;28;19990;-73
2022/02/03 23:46:56;;;;;;;;;;;7.90;99.90;;;;;;8391035;28;19921;-73
2022/02/03 23:51:18;;;;;;;;;;;7.90;99.90;;;;;;8391374;28;20024;-73
